Tanja Jacob — A8YR7 — position and weather

sailwx.info

Track history (hours):
 
Tides and Currents Weather Stations Pressure Air Temp Water Temp Dewpoint Dewpoint Depression Visibility Wind Speed Wind Dir Waves Ship Positions

Tanja Jacob

Last reported at 2016-May-22 22:23 UTC. Time now 2016-May-24 11:48 UTC.
Position N 49°29' E 000°11'.

Length 227 m; draft 8.5 m.

Type: Ship. MMSI: 636092217.

Date/timePositionNaut miles runAvg speedWind from/ knotsBaromVisibWave heightAir tempDewpointWater temp
2016-May-22 22:23N 49°29' E 000°11'1 0.7
2016-May-22 21:34N 49°29' E 000°10'5 4.5
2016-May-22 20:34N 49°30' E 000°04'9 9.1
2016-May-22 19:33N 49°32' W 000°10'4 3.5
2016-May-22 18:31N 49°35' W 000°14'0 0.1
2016-May-22 17:31N 49°35' W 000°14'0 0.1
2016-May-22 16:31N 49°35' W 000°14'0 0.0
2016-May-22 15:33N 49°35' W 000°14'0 0.0
2016-May-22 14:33N 49°35' W 000°14'0 0.1
2016-May-22 13:32N 49°35' W 000°14'0 0.1
2016-May-22 12:32N 49°35' W 000°14'0 0.1
2016-May-22 11:31N 49°35' W 000°14'0 0.1
2016-May-22 10:31N 49°35' W 000°14'0 0.0
2016-May-22 09:31N 49°35' W 000°14'0 0.0
2016-May-22 08:33N 49°35' W 000°14'0 0.0
2016-May-22 07:33N 49°35' W 000°14'4 4.0
2016-May-22 06:33N 49°36' W 000°20'9 9.3
2016-May-22 05:33N 49°40' W 000°32'1110.6
2016-May-22 04:33N 49°44' W 000°47'1010.2
2016-May-22 03:33N 49°47' W 001°03'1110.6
2016-May-22 02:33N 49°51' W 001°18'11 9.5
2016-May-22 01:26N 49°54' W 001°34'4010.1
2016-May-21 21:28N 49°51' W 002°35'1112.2
2016-May-21 20:33N 49°49' W 002°52'1212.3
2016-May-21 19:33N 49°43' W 003°09'7712.6
2016-May-21 13:25N 49°05' W 004°52'1112.3
2016-May-21 12:32N 48°60' W 005°07'1313.6
2016-May-21 11:34N 48°53' W 005°24'59712.4
2016-May-19 11:33N 39°29' W 009°57'1313.3
2016-May-19 10:33N 39°16' W 009°57'1313.2
2016-May-19 09:33N 39°02' W 009°57'1312.8
2016-May-19 08:33N 38°50' W 009°57'1212.3
2016-May-19 07:34N 38°37' W 009°56'1212.4
2016-May-19 06:34N 38°25' W 009°53'1212.0
2016-May-19 05:33N 38°14' W 009°49'1211.9
2016-May-19 04:33N 38°02' W 009°45'1211.7
2016-May-19 03:33N 37°51' W 009°42'1212.0
2016-May-19 02:33N 37°39' W 009°39'1212.1
2016-May-19 01:34N 37°27' W 009°35'4611.4
2016-May-18 21:32N 36°44' W 009°16'1211.9
2016-May-18 20:33N 36°38' W 009°03'1412.4
2016-May-18 19:25N 36°34' W 008°46'1112.8
2016-May-18 18:34N 36°31' W 008°33'1212.5
2016-May-18 17:34N 36°27' W 008°19'1212.5
2016-May-18 16:33N 36°23' W 008°04'1312.7
2016-May-18 15:34N 36°19' W 007°49'1312.8
2016-May-18 14:34N 36°15' W 007°34'10012.5
2016-May-18 06:33N 35°59' W 005°32'9 9.0
2016-May-18 05:33N 36°05' W 005°24'0 0.3
2016-May-18 04:31N 36°05' W 005°24'0 0.0
2016-May-18 03:33N 36°05' W 005°24'0 0.1
2016-May-18 02:33N 36°05' W 005°24'0 0.0
2016-May-18 01:32N 36°05' W 005°24'0 0.2
2016-May-18 00:32N 36°05' W 005°24'0 0.1
2016-May-17 23:31N 36°05' W 005°24'0 0.1
2016-May-17 22:31N 36°05' W 005°24'0 0.0
2016-May-17 21:31N 36°05' W 005°24'0 0.1
2016-May-17 20:33N 36°05' W 005°24'0 0.0
2016-May-17 19:33N 36°05' W 005°24'0 0.1
2016-May-17 18:32N 36°05' W 005°24'0 0.0
2016-May-17 17:32N 36°05' W 005°24'0 0.0
2016-May-17 16:28N 36°05' W 005°24'0 0.2
2016-May-17 15:33N 36°05' W 005°24'3 2.8
2016-May-17 14:33N 36°07' W 005°22'0 0.1
2016-May-17 13:32N 36°07' W 005°22'0 0.1
2016-May-17 12:32N 36°07' W 005°22'0 0.1
2016-May-17 11:31N 36°07' W 005°22'0 0.0
2016-May-17 10:31N 36°07' W 005°22'0 0.1
2016-May-17 09:31N 36°07' W 005°22'0 0.1
2016-May-17 08:33N 36°07' W 005°22'0 0.1
2016-May-17 07:33N 36°07' W 005°22'0 0.0
2016-May-17 06:32N 36°07' W 005°22'0 0.0
2016-May-17 05:29N 36°07' W 005°22'0 0.0
2016-May-17 04:31N 36°07' W 005°22'0 0.0
2016-May-17 03:31N 36°07' W 005°22'0 0.4
2016-May-17 02:33N 36°07' W 005°22'3 2.9
2016-May-17 01:33N 36°05' W 005°19'21712.6
2016-May-16 08:14N 36°36' W 000°52'913.4
2016-May-16 07:33N 36°37' W 000°40'1313.4
2016-May-16 06:33N 36°39' W 000°24'1413.8
2016-May-16 05:33N 36°42' W 000°07'1413.8
2016-May-16 04:34N 36°43' E 000°10'1413.8
2016-May-16 03:33N 36°45' E 000°27'1413.8
2016-May-16 02:32N 36°47' E 000°45'1413.9
2016-May-16 01:33N 36°49' E 001°01'1413.6
2016-May-16 00:33N 36°51' E 001°18'1313.4
2016-May-15 23:33N 36°53' E 001°35'4113.5
2016-May-15 20:31N 36°59' E 002°25'1413.9
2016-May-15 19:31N 37°01' E 002°43'1713.6
2016-May-15 18:17N 37°04' E 003°03'1013.4
2016-May-15 17:32N 37°05' E 003°16'49313.0
2016-May-14 03:31N 36°38' E 013°31'1313.6
2016-May-14 02:33N 36°33' E 013°46'1414.0
2016-May-14 01:33N 36°28' E 014°02'1414.2
2016-May-14 00:33N 36°22' E 014°18'1414.0
2016-May-13 23:34N 36°18' E 014°35'1414.0
2016-May-13 22:33N 36°16' E 014°52'1413.8
2016-May-13 21:33N 36°12' E 015°09'8313.8
2016-May-13 15:33N 35°55' E 016°49'1413.7
2016-May-13 14:33N 35°52' E 017°06'1913.8
2016-May-13 13:10N 35°48' E 017°29'2313.9
2016-May-13 11:29N 35°43' E 017°57'  
Track history (hours):
 
Tides and Currents Weather Stations Pressure Air Temp Water Temp Dewpoint Dewpoint Depression Visibility Wind Speed Wind Dir Waves Ship Positions

Tanja Jacob

Last reported at 2016-May-22 22:23 UTC. Time now 2016-May-24 11:48 UTC.
Position N 49°29' E 000°11'.

Length 227 m; draft 8.5 m.

Type: Ship. MMSI: 636092217.

Date/timePositionNaut miles runAvg speedWind from/ knotsBaromVisibWave heightAir tempDewpointWater temp
2016-May-22 22:23N 49°29' E 000°11'1 0.7
2016-May-22 21:34N 49°29' E 000°10'5 4.5
2016-May-22 20:34N 49°30' E 000°04'9 9.1
2016-May-22 19:33N 49°32' W 000°10'4 3.5
2016-May-22 18:31N 49°35' W 000°14'0 0.1
2016-May-22 17:31N 49°35' W 000°14'0 0.1
2016-May-22 16:31N 49°35' W 000°14'0 0.0
2016-May-22 15:33N 49°35' W 000°14'0 0.0
2016-May-22 14:33N 49°35' W 000°14'0 0.1
2016-May-22 13:32N 49°35' W 000°14'0 0.1
2016-May-22 12:32N 49°35' W 000°14'0 0.1
2016-May-22 11:31N 49°35' W 000°14'0 0.1
2016-May-22 10:31N 49°35' W 000°14'0 0.0
2016-May-22 09:31N 49°35' W 000°14'0 0.0
2016-May-22 08:33N 49°35' W 000°14'0 0.0
2016-May-22 07:33N 49°35' W 000°14'4 4.0
2016-May-22 06:33N 49°36' W 000°20'9 9.3
2016-May-22 05:33N 49°40' W 000°32'1110.6
2016-May-22 04:33N 49°44' W 000°47'1010.2
2016-May-22 03:33N 49°47' W 001°03'1110.6
2016-May-22 02:33N 49°51' W 001°18'11 9.5
2016-May-22 01:26N 49°54' W 001°34'4010.1
2016-May-21 21:28N 49°51' W 002°35'1112.2
2016-May-21 20:33N 49°49' W 002°52'1212.3
2016-May-21 19:33N 49°43' W 003°09'7712.6
2016-May-21 13:25N 49°05' W 004°52'1112.3
2016-May-21 12:32N 48°60' W 005°07'1313.6
2016-May-21 11:34N 48°53' W 005°24'59712.4
2016-May-19 11:33N 39°29' W 009°57'1313.3
2016-May-19 10:33N 39°16' W 009°57'1313.2
2016-May-19 09:33N 39°02' W 009°57'1312.8
2016-May-19 08:33N 38°50' W 009°57'1212.3
2016-May-19 07:34N 38°37' W 009°56'1212.4
2016-May-19 06:34N 38°25' W 009°53'1212.0
2016-May-19 05:33N 38°14' W 009°49'1211.9
2016-May-19 04:33N 38°02' W 009°45'1211.7
2016-May-19 03:33N 37°51' W 009°42'1212.0
2016-May-19 02:33N 37°39' W 009°39'1212.1
2016-May-19 01:34N 37°27' W 009°35'4611.4
2016-May-18 21:32N 36°44' W 009°16'1211.9
2016-May-18 20:33N 36°38' W 009°03'1412.4
2016-May-18 19:25N 36°34' W 008°46'1112.8
2016-May-18 18:34N 36°31' W 008°33'1212.5
2016-May-18 17:34N 36°27' W 008°19'1212.5
2016-May-18 16:33N 36°23' W 008°04'1312.7
2016-May-18 15:34N 36°19' W 007°49'1312.8
2016-May-18 14:34N 36°15' W 007°34'10012.5
2016-May-18 06:33N 35°59' W 005°32'9 9.0
2016-May-18 05:33N 36°05' W 005°24'0 0.3
2016-May-18 04:31N 36°05' W 005°24'0 0.0
2016-May-18 03:33N 36°05' W 005°24'0 0.1
2016-May-18 02:33N 36°05' W 005°24'0 0.0
2016-May-18 01:32N 36°05' W 005°24'0 0.2
2016-May-18 00:32N 36°05' W 005°24'0 0.1
2016-May-17 23:31N 36°05' W 005°24'0 0.1
2016-May-17 22:31N 36°05' W 005°24'0 0.0
2016-May-17 21:31N 36°05' W 005°24'0 0.1
2016-May-17 20:33N 36°05' W 005°24'0 0.0
2016-May-17 19:33N 36°05' W 005°24'0 0.1
2016-May-17 18:32N 36°05' W 005°24'0 0.0
2016-May-17 17:32N 36°05' W 005°24'0 0.0
2016-May-17 16:28N 36°05' W 005°24'0 0.2
2016-May-17 15:33N 36°05' W 005°24'3 2.8
2016-May-17 14:33N 36°07' W 005°22'0 0.1
2016-May-17 13:32N 36°07' W 005°22'0 0.1
2016-May-17 12:32N 36°07' W 005°22'0 0.1
2016-May-17 11:31N 36°07' W 005°22'0 0.0
2016-May-17 10:31N 36°07' W 005°22'0 0.1
2016-May-17 09:31N 36°07' W 005°22'0 0.1
2016-May-17 08:33N 36°07' W 005°22'0 0.1
2016-May-17 07:33N 36°07' W 005°22'0 0.0
2016-May-17 06:32N 36°07' W 005°22'0 0.0
2016-May-17 05:29N 36°07' W 005°22'0 0.0
2016-May-17 04:31N 36°07' W 005°22'0 0.0
2016-May-17 03:31N 36°07' W 005°22'0 0.4
2016-May-17 02:33N 36°07' W 005°22'3 2.9
2016-May-17 01:33N 36°05' W 005°19'21712.6
2016-May-16 08:14N 36°36' W 000°52'913.4
2016-May-16 07:33N 36°37' W 000°40'1313.4
2016-May-16 06:33N 36°39' W 000°24'1413.8
2016-May-16 05:33N 36°42' W 000°07'1413.8
2016-May-16 04:34N 36°43' E 000°10'1413.8
2016-May-16 03:33N 36°45' E 000°27'1413.8
2016-May-16 02:32N 36°47' E 000°45'1413.9
2016-May-16 01:33N 36°49' E 001°01'1413.6
2016-May-16 00:33N 36°51' E 001°18'1313.4
2016-May-15 23:33N 36°53' E 001°35'4113.5
2016-May-15 20:31N 36°59' E 002°25'1413.9
2016-May-15 19:31N 37°01' E 002°43'1713.6
2016-May-15 18:17N 37°04' E 003°03'1013.4
2016-May-15 17:32N 37°05' E 003°16'49313.0
2016-May-14 03:31N 36°38' E 013°31'1313.6
2016-May-14 02:33N 36°33' E 013°46'1414.0
2016-May-14 01:33N 36°28' E 014°02'1414.2
2016-May-14 00:33N 36°22' E 014°18'1414.0
2016-May-13 23:34N 36°18' E 014°35'1414.0
2016-May-13 22:33N 36°16' E 014°52'1413.8
2016-May-13 21:33N 36°12' E 015°09'8313.8
2016-May-13 15:33N 35°55' E 016°49'1413.7
2016-May-13 14:33N 35°52' E 017°06'1913.8
2016-May-13 13:10N 35°48' E 017°29'2313.9
2016-May-13 11:29N 35°43' E 017°57'  

Dump ship's entire track history